Time,TemperatureF,DewpointF,PressureIn,WindDirection,WindDirectionDegrees,WindSpeedMPH,WindSpeedGustMPH,Humidity,HourlyPrecipIn,Conditions,Clouds,dailyrainin,SoftwareType,DateUTC
2013-01-19 00:03:00,32.7,27.2,29.82,SW,214,0.0,0.0,80,0.00,,SKC,0.00,VWS V14.01,2013-01-19 06:03:00,
2013-01-19 00:08:00,32.7,27.2,29.82,SW,214,0.0,0.0,80,0.00,,SKC,0.00,VWS V14.01,2013-01-19 06:08:00,
2013-01-19 00:13:00,32.7,27.2,29.82,SW,214,0.0,0.0,80,0.00,,SKC,0.00,VWS V14.01,2013-01-19 06:13:00,
2013-01-19 00:19:00,32.7,27.2,29.82,SW,214,0.0,0.0,80,0.00,,SKC,0.00,VWS V14.01,2013-01-19 06:19:00,
2013-01-19 00:24:00,32.7,27.2,29.82,SW,214,0.0,0.0,80,0.00,,SKC,0.00,VWS V14.01,2013-01-19 06:24:00,
2013-01-19 00:29:00,32.7,27.2,29.82,SW,214,0.0,0.0,80,0.00,,SKC,0.00,VWS V14.01,2013-01-19 06:29:00,
2013-01-19 00:34:00,32.9,27.4,29.82,SW,215,0.0,0.0,80,0.00,,SKC,0.00,VWS V14.01,2013-01-19 06:34:00,
2013-01-19 00:39:00,32.9,27.4,29.82,SW,215,0.0,0.0,80,0.00,,SKC,0.00,VWS V14.01,2013-01-19 06:39:00,
2013-01-19 00:44:00,32.9,27.4,29.82,SW,215,0.0,0.0,80,0.00,,SKC,0.00,VWS V14.01,2013-01-19 06:44:00,
2013-01-19 00:49:00,33.1,27.6,29.82,SSW,213,0.0,0.0,80,0.00,,SKC,0.00,VWS V14.01,2013-01-19 06:49:00,
2013-01-19 00:54:00,32.9,27.4,29.82,SSW,205,0.0,0.0,80,0.00,,SKC,0.00,VWS V14.01,2013-01-19 06:54:00,
2013-01-19 00:59:00,32.9,27.4,29.82,SSW,205,0.0,0.0,80,0.00,,SKC,0.00,VWS V14.01,2013-01-19 06:59:00,
2013-01-19 01:04:00,32.7,27.2,29.82,SSW,205,0.0,0.0,80,0.00,,SKC,0.00,VWS V14.01,2013-01-19 07:04:00,
2013-01-19 01:09:00,32.7,27.2,29.82,SSW,205,0.0,0.0,80,0.00,,SKC,0.00,VWS V14.01,2013-01-19 07:09:00,
2013-01-19 01:14:00,32.7,27.2,29.82,SSW,205,0.0,0.0,80,0.00,,SKC,0.00,VWS V14.01,2013-01-19 07:14:00,
2013-01-19 01:19:00,32.7,27.2,29.82,SSW,205,0.0,0.0,80,0.00,,SKC,0.00,VWS V14.01,2013-01-19 07:19:00,
2013-01-19 01:24:00,32.7,26.9,29.82,SSW,204,0.0,0.0,79,0.00,,SKC,0.00,VWS V14.01,2013-01-19 07:24:00,
2013-01-19 01:29:00,32.9,27.1,29.82,SSW,205,0.0,0.0,79,0.00,,SKC,0.00,VWS V14.01,2013-01-19 07:29:00,
2013-01-19 01:34:00,32.9,27.1,29.82,SSW,205,0.0,0.0,79,0.00,,SKC,0.00,VWS V14.01,2013-01-19 07:34:00,
2013-01-19 01:39:00,32.9,27.1,29.82,SSW,205,0.0,0.0,79,0.00,,SKC,0.00,VWS V14.01,2013-01-19 07:39:00,
2013-01-19 01:44:00,32.9,27.1,29.82,SSW,205,0.0,0.0,79,0.00,,SKC,0.00,VWS V14.01,2013-01-19 07:44:00,
2013-01-19 01:49:00,32.9,27.1,29.82,SSW,205,0.0,0.0,79,0.00,,SKC,0.00,VWS V14.01,2013-01-19 07:49:00,
2013-01-19 01:54:00,32.7,26.9,29.82,SSW,205,0.0,0.0,79,0.00,,SKC,0.00,VWS V14.01,2013-01-19 07:54:00,
2013-01-19 01:59:00,32.7,26.9,29.82,SSW,205,0.0,0.0,79,0.00,,SKC,0.00,VWS V14.01,2013-01-19 07:59:00,
2013-01-19 02:04:00,32.7,26.9,29.79,SSW,204,0.0,0.0,79,0.00,,SKC,0.00,VWS V14.01,2013-01-19 08:04:00,
2013-01-19 02:09:00,32.5,26.8,29.79,SSW,205,0.0,0.0,79,0.00,,SKC,0.00,VWS V14.01,2013-01-19 08:09:00,
2013-01-19 02:14:00,32.5,26.8,29.79,South,179,0.0,0.0,79,0.00,,SKC,0.00,VWS V14.01,2013-01-19 08:14:00,
2013-01-19 02:19:00,32.5,26.8,29.79,South,182,0.0,0.0,79,0.00,,SKC,0.00,VWS V14.01,2013-01-19 08:19:00,
2013-01-19 02:24:00,32.5,26.8,29.79,South,181,0.0,0.0,79,0.00,,SKC,0.00,VWS V14.01,2013-01-19 08:24:00,
2013-01-19 02:29:00,32.5,26.8,29.79,South,181,0.0,0.0,79,0.00,,SKC,0.00,VWS V14.01,2013-01-19 08:29:00,
2013-01-19 02:34:00,32.7,26.9,29.82,SSW,195,0.0,0.0,79,0.00,,SKC,0.00,VWS V14.01,2013-01-19 08:34:00,
2013-01-19 02:39:00,32.7,26.9,29.82,South,172,0.0,0.0,79,0.00,,SKC,0.00,VWS V14.01,2013-01-19 08:39:00,
2013-01-19 02:44:00,32.7,26.9,29.82,SSE,167,0.0,0.0,79,0.00,,SKC,0.00,VWS V14.01,2013-01-19 08:44:00,
2013-01-19 02:49:00,32.7,26.9,29.79,South,189,0.0,0.0,79,0.00,,SKC,0.00,VWS V14.01,2013-01-19 08:49:00,
2013-01-19 02:54:00,32.9,27.1,29.79,SSW,195,0.0,0.0,79,0.00,,SKC,0.00,VWS V14.01,2013-01-19 08:54:00,
2013-01-19 02:59:00,32.9,27.4,29.79,SSW,195,0.0,0.0,80,0.00,,SKC,0.00,VWS V14.01,2013-01-19 08:59:00,
2013-01-19 03:04:00,32.9,27.4,29.79,South,188,0.0,0.0,80,0.00,,SKC,0.00,VWS V14.01,2013-01-19 09:04:00,
2013-01-19 03:09:00,32.9,27.1,29.79,South,188,0.0,0.0,79,0.00,,SKC,0.00,VWS V14.01,2013-01-19 09:09:00,
2013-01-19 03:14:00,32.7,26.9,29.79,South,188,0.0,0.0,79,0.00,,SKC,0.00,VWS V14.01,2013-01-19 09:14:00,
2013-01-19 03:19:00,32.7,26.9,29.79,SSW,192,0.0,0.0,79,0.00,,SKC,0.00,VWS V14.01,2013-01-19 09:19:00,
2013-01-19 03:24:00,32.5,26.8,29.79,SSW,201,0.0,0.0,79,0.00,,SKC,0.00,VWS V14.01,2013-01-19 09:24:00,
2013-01-19 03:29:00,32.5,26.8,29.79,SSW,196,0.0,0.0,79,0.00,,SKC,0.00,VWS V14.01,2013-01-19 09:29:00,
2013-01-19 03:34:00,32.5,26.8,29.79,South,183,0.0,0.0,79,0.00,,SKC,0.00,VWS V14.01,2013-01-19 09:34:00,
2013-01-19 03:39:00,32.7,26.9,29.79,SSW,203,0.0,0.0,79,0.00,,SKC,0.00,VWS V14.01,2013-01-19 09:39:00,
2013-01-19 03:44:00,32.7,27.2,29.79,South,184,0.0,0.0,80,0.00,,SKC,0.00,VWS V14.01,2013-01-19 09:44:00,
2013-01-19 03:49:00,32.7,27.2,29.79,South,184,0.0,0.0,80,0.00,,SKC,0.00,VWS V14.01,2013-01-19 09:49:00,
2013-01-19 03:54:00,32.7,27.2,29.79,South,184,0.0,0.0,80,0.00,,SKC,0.00,VWS V14.01,2013-01-19 09:54:00,
2013-01-19 03:59:00,32.9,27.4,29.79,SSE,156,0.0,0.0,80,0.00,,SKC,0.00,VWS V14.01,2013-01-19 09:59:00,
2013-01-19 04:04:00,32.7,27.2,29.79,South,184,0.0,0.0,80,0.00,,SKC,0.00,VWS V14.01,2013-01-19 10:04:00,
2013-01-19 04:10:00,32.5,27.1,29.79,South,184,0.0,0.0,80,0.00,,SKC,0.00,VWS V14.01,2013-01-19 10:10:00,
2013-01-19 04:15:00,32.5,27.1,29.79,SSE,164,0.0,0.0,80,0.00,,SKC,0.00,VWS V14.01,2013-01-19 10:15:00,
2013-01-19 04:20:00,32.5,27.1,29.76,South,176,0.0,0.0,80,0.00,,SKC,0.00,VWS V14.01,2013-01-19 10:20:00,
2013-01-19 04:25:00,32.5,27.1,29.76,SSE,157,0.0,0.0,80,0.00,,SKC,0.00,VWS V14.01,2013-01-19 10:25:00,
2013-01-19 04:30:00,32.5,27.1,29.76,South,170,0.0,0.0,80,0.00,,SKC,0.00,VWS V14.01,2013-01-19 10:30:00,
2013-01-19 04:35:00,32.5,27.1,29.76,SW,225,0.0,0.0,80,0.00,,SKC,0.00,VWS V14.01,2013-01-19 10:35:00,
2013-01-19 04:40:00,32.4,26.9,29.76,SSW,192,0.0,0.0,80,0.00,,SKC,0.00,VWS V14.01,2013-01-19 10:40:00,
2013-01-19 04:45:00,32.4,26.9,29.76,SSW,195,0.0,8.1,80,0.00,,SKC,0.00,VWS V14.01,2013-01-19 10:45:00,
2013-01-19 04:50:00,32.4,26.9,29.76,SSW,198,0.0,0.0,80,0.00,,SKC,0.00,VWS V14.01,2013-01-19 10:50:00,
2013-01-19 04:55:00,32.4,26.9,29.76,South,187,0.0,0.0,80,0.00,,SKC,0.00,VWS V14.01,2013-01-19 10:55:00,
2013-01-19 05:00:00,32.2,26.7,29.76,SSW,194,0.0,0.0,80,0.00,,SKC,0.00,VWS V14.01,2013-01-19 11:00:00,
2013-01-19 05:05:00,32.2,26.7,29.76,South,176,0.0,0.0,80,0.00,,SKC,0.00,VWS V14.01,2013-01-19 11:05:00,
2013-01-19 05:10:00,32.2,26.7,29.76,South,180,0.0,0.0,80,0.00,,SKC,0.00,VWS V14.01,2013-01-19 11:10:00,
2013-01-19 06:48:00,33.1,27.0,29.76,SSW,200,0.0,0.0,78,0.00,,SKC,0.00,VWS V14.01,2013-01-19 12:48:00,
2013-01-19 06:53:00,33.1,27.0,29.76,SW,232,0.0,0.0,78,0.00,,SKC,0.00,VWS V14.01,2013-01-19 12:53:00,
2013-01-19 06:55:00,33.1,27.0,29.76,SSW,209,0.0,0.0,78,0.00,,SKC,0.00,VWS V14.01,2013-01-19 12:55:00,
2013-01-19 07:00:00,32.9,26.5,29.76,SSW,200,0.0,0.0,77,0.00,,SKC,0.00,VWS V14.01,2013-01-19 13:00:00,
2013-01-19 07:06:00,32.9,26.5,29.76,SW,235,0.0,0.0,77,0.00,,SKC,0.00,VWS V14.01,2013-01-19 13:06:00,
2013-01-19 07:11:00,32.9,26.5,29.76,SW,235,0.0,0.0,77,0.00,,SKC,0.00,VWS V14.01,2013-01-19 13:11:00,
2013-01-19 07:16:00,32.7,26.3,29.76,WSW,241,0.0,0.0,77,0.00,,SKC,0.00,VWS V14.01,2013-01-19 13:16:00,
2013-01-19 07:22:00,32.7,26.3,29.76,South,169,0.0,0.0,77,0.00,,SKC,0.00,VWS V14.01,2013-01-19 13:22:00,
2013-01-19 07:28:00,32.7,26.3,29.76,SW,235,0.0,0.0,77,0.00,,SKC,0.00,VWS V14.01,2013-01-19 13:28:00,
2013-01-19 07:33:00,32.7,26.3,29.76,SW,236,0.0,0.0,77,0.00,,SKC,0.00,VWS V14.01,2013-01-19 13:33:00,
2013-01-19 07:38:00,32.7,26.3,29.76,SW,214,0.0,0.0,77,0.00,,SKC,0.00,VWS V14.01,2013-01-19 13:38:00,
2013-01-19 07:43:00,32.7,26.3,29.76,SW,227,0.0,0.0,77,0.00,,SKC,0.00,VWS V14.01,2013-01-19 13:43:00,
2013-01-19 07:48:00,33.1,26.7,29.76,WSW,253,0.0,0.0,77,0.00,,SKC,0.00,VWS V14.01,2013-01-19 13:48:00,
2013-01-19 07:53:00,33.3,26.5,29.76,WSW,256,0.0,0.0,76,0.00,,SKC,0.00,VWS V14.01,2013-01-19 13:53:00,
2013-01-19 07:58:00,33.3,26.2,29.76,WSW,250,6.4,6.4,75,0.00,,SKC,0.00,VWS V14.01,2013-01-19 13:58:00,
2013-01-19 08:03:00,33.3,26.2,29.76,WSW,249,0.0,0.0,75,0.00,,SKC,0.00,VWS V14.01,2013-01-19 14:03:00,
2013-01-19 08:08:00,33.1,25.7,29.76,WSW,254,0.0,0.0,74,0.00,,SKC,0.00,VWS V14.01,2013-01-19 14:08:00,
2013-01-19 08:13:00,33.3,25.9,29.76,SW,231,0.0,0.0,74,0.00,,SKC,0.00,VWS V14.01,2013-01-19 14:13:00,
2013-01-19 08:18:00,33.3,25.9,29.76,SW,232,0.0,0.0,74,0.00,,SKC,0.00,VWS V14.01,2013-01-19 14:18:00,
2013-01-19 08:23:00,33.6,26.2,29.76,SW,221,0.0,0.0,74,0.00,,SKC,0.00,VWS V14.01,2013-01-19 14:23:00,
2013-01-19 08:28:00,33.6,26.2,29.76,SW,216,0.0,0.0,74,0.00,,SKC,0.00,VWS V14.01,2013-01-19 14:28:00,
2013-01-19 08:33:00,33.8,26.1,29.76,WSW,252,0.0,0.0,73,0.00,,SKC,0.00,VWS V14.01,2013-01-19 14:33:00,
2013-01-19 08:38:00,34.0,26.2,29.76,SW,234,0.0,0.0,73,0.00,,SKC,0.00,VWS V14.01,2013-01-19 14:38:00,
2013-01-19 08:43:00,34.3,26.3,29.76,SW,236,0.0,0.0,72,0.00,,SKC,0.00,VWS V14.01,2013-01-19 14:43:00,
2013-01-19 08:48:00,34.3,25.9,29.76,SW,225,0.0,0.0,71,0.00,,SKC,0.00,VWS V14.01,2013-01-19 14:48:00,
2013-01-19 08:53:00,34.5,25.8,29.76,West,265,4.8,4.8,70,0.00,,SKC,0.00,VWS V14.01,2013-01-19 14:53:00,
2013-01-19 08:58:00,34.9,25.8,29.76,SW,233,0.0,0.0,69,0.00,,SKC,0.00,VWS V14.01,2013-01-19 14:58:00,
2013-01-19 09:03:00,35.2,26.1,29.76,SW,230,0.0,0.0,69,0.00,,SKC,0.00,VWS V14.01,2013-01-19 15:03:00,
2013-01-19 09:08:00,35.6,25.7,29.76,SSW,213,0.0,0.0,67,0.00,,SKC,0.00,VWS V14.01,2013-01-19 15:08:00,
2013-01-19 09:14:00,36.0,25.0,29.76,WNW,292,0.0,0.0,64,0.00,,SKC,0.00,VWS V14.01,2013-01-19 15:14:00,
2013-01-19 09:19:00,36.1,24.4,29.76,SW,230,0.0,0.0,62,0.00,,SKC,0.00,VWS V14.01,2013-01-19 15:19:00,
2013-01-19 09:24:00,36.3,24.2,29.76,WSW,254,4.8,4.8,61,0.00,,SKC,0.00,VWS V14.01,2013-01-19 15:24:00,
2013-01-19 09:29:00,36.1,24.0,29.76,West,281,4.8,4.8,61,0.00,,SKC,0.00,VWS V14.01,2013-01-19 15:29:00,
2013-01-19 09:34:00,35.8,24.0,29.79,WSW,247,0.0,0.0,62,0.00,,SKC,0.00,VWS V14.01,2013-01-19 15:34:00,
2013-01-19 09:39:00,35.8,24.0,29.79,WSW,249,0.0,0.0,62,0.00,,SKC,0.00,VWS V14.01,2013-01-19 15:39:00,
2013-01-19 09:44:00,35.6,24.3,29.79,West,280,0.0,0.0,63,0.00,,SKC,0.00,VWS V14.01,2013-01-19 15:44:00,
2013-01-19 09:49:00,36.1,25.1,29.79,West,262,0.0,0.0,64,0.00,,SKC,0.00,VWS V14.01,2013-01-19 15:49:00,
2013-01-19 09:54:00,36.9,25.1,29.79,SW,220,0.0,0.0,62,0.00,,SKC,0.00,VWS V14.01,2013-01-19 15:54:00,
2013-01-19 09:59:00,37.4,24.4,29.79,West,262,0.0,0.0,59,0.00,,SKC,0.00,VWS V14.01,2013-01-19 15:59:00,
2013-01-19 10:04:00,38.1,23.8,29.79,West,278,0.0,6.4,56,0.00,,SKC,0.00,VWS V14.01,2013-01-19 16:04:00,
2013-01-19 10:09:00,38.7,23.5,29.79,NW,306,0.0,6.4,54,0.00,,SKC,0.00,VWS V14.01,2013-01-19 16:09:00,
2013-01-19 10:14:00,39.4,23.2,29.79,NW,305,10.5,10.5,52,0.00,,SKC,0.00,VWS V14.01,2013-01-19 16:14:00,
2013-01-19 10:19:00,39.7,23.1,29.79,WNW,298,11.3,11.3,51,0.00,,SKC,0.00,VWS V14.01,2013-01-19 16:19:00,
2013-01-19 10:24:00,40.3,23.1,29.79,NW,323,14.5,14.9,50,0.00,,SKC,0.00,VWS V14.01,2013-01-19 16:24:00,
2013-01-19 10:29:00,41.0,23.3,29.79,West,280,9.7,15.7,49,0.00,,SKC,0.00,VWS V14.01,2013-01-19 16:29:00,
2013-01-19 10:34:00,41.9,24.1,29.79,West,277,13.7,14.9,49,0.00,,SKC,0.00,VWS V14.01,2013-01-19 16:34:00,
2013-01-19 10:39:00,42.3,24.0,29.79,West,260,13.7,13.7,48,0.00,,SKC,0.00,VWS V14.01,2013-01-19 16:39:00,
2013-01-19 10:44:00,42.4,23.6,29.79,WNW,287,12.9,18.1,47,0.00,,SKC,0.00,VWS V14.01,2013-01-19 16:44:00,
2013-01-19 10:49:00,42.3,24.0,29.79,WNW,292,15.7,15.7,48,0.00,,SKC,0.00,VWS V14.01,2013-01-19 16:49:00,
2013-01-19 10:54:00,42.3,23.5,29.79,NW,308,6.4,7.2,47,0.00,,SKC,0.00,VWS V14.01,2013-01-19 16:54:00,
2013-01-19 10:59:00,42.4,23.1,29.79,WNW,298,15.7,17.3,46,0.00,,SKC,0.00,VWS V14.01,2013-01-19 16:59:00,
2013-01-19 11:04:00,43.0,23.1,29.79,NNW,330,19.7,19.7,45,0.00,,SKC,0.00,VWS V14.01,2013-01-19 17:04:00,
2013-01-19 11:09:00,43.2,23.3,29.79,WNW,289,9.7,14.5,45,0.00,,SKC,0.00,VWS V14.01,2013-01-19 17:09:00,
2013-01-19 11:14:00,43.3,22.9,29.79,WNW,290,13.7,17.3,44,0.00,,SKC,0.00,VWS V14.01,2013-01-19 17:14:00,
2013-01-19 11:20:00,42.8,23.0,29.79,WNW,302,13.7,14.5,45,0.00,,SKC,0.00,VWS V14.01,2013-01-19 17:20:00,
2013-01-19 11:25:00,42.3,23.5,29.79,NW,326,8.9,14.5,47,0.00,,SKC,0.00,VWS V14.01,2013-01-19 17:25:00,
2013-01-19 11:30:00,41.5,22.3,29.79,NNW,331,10.5,15.7,46,0.00,,SKC,0.00,VWS V14.01,2013-01-19 17:30:00,
2013-01-19 11:35:00,41.0,22.3,29.79,WNW,284,10.5,10.5,47,0.00,,SKC,0.00,VWS V14.01,2013-01-19 17:35:00,
2013-01-19 11:40:00,41.4,23.2,29.79,West,266,10.5,14.9,48,0.00,,SKC,0.00,VWS V14.01,2013-01-19 17:40:00,
2013-01-19 11:46:00,42.6,23.8,29.79,SW,236,10.5,23.0,47,0.00,,SKC,0.00,VWS V14.01,2013-01-19 17:46:00,
2013-01-19 11:52:00,42.8,23.5,29.79,WNW,284,12.9,18.1,46,0.00,,SKC,0.00,VWS V14.01,2013-01-19 17:52:00,
2013-01-19 11:58:00,41.9,22.6,29.79,WNW,288,15.7,19.7,46,0.00,,SKC,0.00,VWS V14.01,2013-01-19 17:58:00,
2013-01-19 12:03:00,41.7,23.5,29.79,West,269,9.7,15.7,48,0.00,,SKC,0.00,VWS V14.01,2013-01-19 18:03:00,
2013-01-19 12:09:00,42.1,23.3,29.79,NW,305,9.7,9.7,47,0.00,,SKC,0.00,VWS V14.01,2013-01-19 18:09:00,
2013-01-19 12:15:00,42.3,23.0,29.79,NW,322,19.7,19.7,46,0.00,,SKC,0.00,VWS V14.01,2013-01-19 18:15:00,
2013-01-19 12:20:00,42.3,23.0,29.79,WSW,253,22.1,24.6,46,0.00,,SKC,0.00,VWS V14.01,2013-01-19 18:20:00,
2013-01-19 12:25:00,42.3,23.0,29.79,WNW,293,13.7,13.7,46,0.00,,SKC,0.00,VWS V14.01,2013-01-19 18:25:00,
2013-01-19 12:30:00,42.4,23.1,29.79,WSW,257,18.1,18.1,46,0.00,,SKC,0.00,VWS V14.01,2013-01-19 18:30:00,
2013-01-19 12:35:00,42.6,23.3,29.76,NNW,345,13.7,15.7,46,0.00,,SKC,0.00,VWS V14.01,2013-01-19 18:35:00,
2013-01-19 12:40:00,42.8,23.5,29.76,WNW,284,15.7,15.7,46,0.00,,SKC,0.00,VWS V14.01,2013-01-19 18:40:00,
2013-01-19 12:45:00,43.3,24.0,29.76,NNW,340,4.8,9.7,46,0.00,,SKC,0.00,VWS V14.01,2013-01-19 18:45:00,
2013-01-19 12:50:00,43.3,23.4,29.76,West,266,13.7,13.7,45,0.00,,SKC,0.00,VWS V14.01,2013-01-19 18:50:00,
2013-01-19 12:56:00,43.5,23.6,29.76,West,278,24.6,24.6,45,0.00,,SKC,0.00,VWS V14.01,2013-01-19 18:56:00,
2013-01-19 13:02:00,43.5,23.6,29.76,NW,304,18.9,25.4,45,0.00,,SKC,0.00,VWS V14.01,2013-01-19 19:02:00,
2013-01-19 13:09:00,44.2,24.8,29.76,NW,307,12.1,26.2,46,0.00,,SKC,0.00,VWS V14.01,2013-01-19 19:09:00,
2013-01-19 13:15:00,44.2,24.3,29.76,WSW,255,13.7,13.7,45,0.00,,SKC,0.00,VWS V14.01,2013-01-19 19:15:00,
2013-01-19 13:22:00,43.3,24.0,29.79,WNW,302,11.3,21.3,46,0.00,,SKC,0.00,VWS V14.01,2013-01-19 19:22:00,
2013-01-19 13:28:00,42.4,23.6,29.79,West,278,0.0,21.3,47,0.00,,SKC,0.00,VWS V14.01,2013-01-19 19:28:00,
2013-01-19 13:34:00,41.7,23.5,29.79,WSW,253,17.3,18.1,48,0.00,,SKC,0.00,VWS V14.01,2013-01-19 19:34:00,
2013-01-19 13:40:00,42.1,24.3,29.79,North,357,15.7,19.7,49,0.00,,SKC,0.00,VWS V14.01,2013-01-19 19:40:00,
2013-01-19 13:46:00,42.1,23.8,29.79,NW,324,11.3,14.5,48,0.00,,SKC,0.00,VWS V14.01,2013-01-19 19:46:00,
2013-01-19 13:52:00,42.1,23.8,29.79,WSW,258,18.1,18.1,48,0.00,,SKC,0.00,VWS V14.01,2013-01-19 19:52:00,
2013-01-19 13:57:00,42.3,24.5,29.79,NW,305,8.9,17.3,49,0.00,,SKC,0.00,VWS V14.01,2013-01-19 19:57:00,
2013-01-19 14:02:00,42.1,23.8,29.79,WNW,294,10.5,17.3,48,0.00,,SKC,0.00,VWS V14.01,2013-01-19 20:02:00,
2013-01-19 14:07:00,42.1,24.3,29.82,WNW,294,10.5,11.3,49,0.00,,SKC,0.00,VWS V14.01,2013-01-19 20:07:00,
2013-01-19 14:12:00,42.3,24.5,29.82,WNW,291,14.9,19.7,49,0.00,,SKC,0.00,VWS V14.01,2013-01-19 20:12:00,
2013-01-19 14:17:00,42.4,24.6,29.82,NNW,344,6.4,14.5,49,0.00,,SKC,0.00,VWS V14.01,2013-01-19 20:17:00,
2013-01-19 14:22:00,41.9,24.1,29.82,NW,324,17.3,17.3,49,0.00,,SKC,0.00,VWS V14.01,2013-01-19 20:22:00,
2013-01-19 14:27:00,41.7,24.0,29.82,WNW,296,13.7,19.7,49,0.00,,SKC,0.00,VWS V14.01,2013-01-19 20:27:00,
2013-01-19 14:33:00,42.1,24.3,29.82,WNW,285,19.7,19.7,49,0.00,,SKC,0.00,VWS V14.01,2013-01-19 20:33:00,
2013-01-19 14:38:00,41.9,24.1,29.82,WNW,286,19.7,23.8,49,0.00,,SKC,0.00,VWS V14.01,2013-01-19 20:38:00,
2013-01-19 14:43:00,41.9,23.7,29.82,West,266,15.7,23.8,48,0.00,,SKC,0.00,VWS V14.01,2013-01-19 20:43:00,
2013-01-19 14:49:00,42.1,24.3,29.82,WNW,290,27.8,27.8,49,0.00,,SKC,0.00,VWS V14.01,2013-01-19 20:49:00,
2013-01-19 14:55:00,41.5,23.3,29.82,West,277,26.2,26.2,48,0.00,,SKC,0.00,VWS V14.01,2013-01-19 20:55:00,
2013-01-19 15:02:00,41.4,23.2,29.82,NW,304,21.3,23.0,48,0.00,,SKC,0.00,VWS V14.01,2013-01-19 21:02:00,
2013-01-19 15:08:00,41.5,23.8,29.82,NW,304,19.7,27.0,49,0.00,,SKC,0.00,VWS V14.01,2013-01-19 21:08:00,
2013-01-19 15:14:00,41.2,23.0,29.82,NW,312,10.5,23.8,48,0.00,,SKC,0.00,VWS V14.01,2013-01-19 21:14:00,
2013-01-19 15:20:00,40.6,22.0,29.85,WNW,295,11.3,19.7,47,0.00,,SKC,0.00,VWS V14.01,2013-01-19 21:20:00,
2013-01-19 15:27:00,40.8,22.2,29.85,WNW,296,15.7,23.0,47,0.00,,SKC,0.00,VWS V14.01,2013-01-19 21:27:00,
2013-01-19 15:34:00,40.3,22.2,29.85,WNW,300,14.5,15.7,48,0.00,,SKC,0.00,VWS V14.01,2013-01-19 21:34:00,
2013-01-19 15:41:00,40.3,22.2,29.85,NW,313,11.3,23.8,48,0.00,,SKC,0.00,VWS V14.01,2013-01-19 21:41:00,
2013-01-19 15:46:00,39.7,21.7,29.85,NW,305,14.9,22.1,48,0.00,,SKC,0.00,VWS V14.01,2013-01-19 21:46:00,
2013-01-19 15:52:00,39.4,21.8,29.85,NW,305,14.9,27.0,49,0.00,,SKC,0.00,VWS V14.01,2013-01-19 21:52:00,
2013-01-19 15:57:00,39.4,22.3,29.85,WNW,298,14.9,27.8,50,0.00,,SKC,0.00,VWS V14.01,2013-01-19 21:57:00,
2013-01-19 16:02:00,39.2,22.1,29.85,WNW,283,10.5,21.3,50,0.00,,SKC,0.00,VWS V14.01,2013-01-19 22:02:00,
2013-01-19 16:07:00,39.0,22.0,29.88,North,0,11.3,14.5,50,0.00,,SKC,0.00,VWS V14.01,2013-01-19 22:07:00,
2013-01-19 16:14:00,38.7,22.1,29.88,WNW,283,6.4,19.7,51,0.00,,SKC,0.00,VWS V14.01,2013-01-19 22:14:00,
2013-01-19 16:20:00,37.0,20.6,29.88,WNW,282,23.8,23.8,51,0.00,,SKC,0.00,VWS V14.01,2013-01-19 22:20:00,
2013-01-19 16:25:00,34.3,19.4,29.88,North,357,15.7,22.1,54,0.00,,SKC,0.00,VWS V14.01,2013-01-19 22:25:00,
2013-01-19 16:30:00,33.3,19.7,29.88,WNW,300,13.7,13.7,57,0.00,,SKC,0.00,VWS V14.01,2013-01-19 22:30:00,
2013-01-19 16:35:00,32.7,19.6,29.91,WNW,300,11.3,14.9,58,0.00,,SKC,0.00,VWS V14.01,2013-01-19 22:35:00,
2013-01-19 16:40:00,32.4,19.2,29.91,NNW,339,14.9,19.7,58,0.00,,SKC,0.00,VWS V14.01,2013-01-19 22:40:00,
2013-01-19 16:45:00,32.2,19.5,29.91,WNW,294,10.5,10.5,59,0.00,,SKC,0.00,VWS V14.01,2013-01-19 22:45:00,
2013-01-19 16:50:00,32.2,19.5,29.91,WSW,257,33.0,33.0,59,0.00,,SKC,0.00,VWS V14.01,2013-01-19 22:50:00,
2013-01-19 16:55:00,31.8,17.9,29.91,WNW,288,15.7,19.7,56,0.00,,SKC,0.00,VWS V14.01,2013-01-19 22:55:00,
2013-01-19 17:00:00,31.5,17.2,29.91,West,264,5.6,23.0,55,0.00,,SKC,0.00,VWS V14.01,2013-01-19 23:00:00,
2013-01-19 17:05:00,30.7,15.6,29.91,NNW,345,23.0,23.0,53,0.00,,SKC,0.00,VWS V14.01,2013-01-19 23:05:00,
2013-01-19 17:10:00,29.5,14.0,29.91,NW,322,24.6,31.4,52,0.00,,SKC,0.00,VWS V14.01,2013-01-19 23:10:00,
2013-01-19 17:15:00,28.2,12.9,29.91,West,277,16.5,30.6,52,0.00,,SKC,0.00,VWS V14.01,2013-01-19 23:15:00,
2013-01-19 17:20:00,27.7,12.8,29.93,NW,319,11.3,14.9,53,0.00,,SKC,0.00,VWS V14.01,2013-01-19 23:20:00,
2013-01-19 17:26:00,27.0,12.6,29.93,NNW,346,18.9,20.5,54,0.00,,SKC,0.00,VWS V14.01,2013-01-19 23:26:00,
2013-01-19 17:33:00,26.2,11.0,29.96,West,274,33.0,33.0,52,0.00,,SKC,0.00,VWS V14.01,2013-01-19 23:33:00,
2013-01-19 17:39:00,25.5,9.5,29.96,WSW,251,18.9,29.4,50,0.00,,SKC,0.00,VWS V14.01,2013-01-19 23:39:00,
2013-01-19 17:45:00,25.3,9.8,29.96,NNW,337,23.0,30.6,51,0.00,,SKC,0.00,VWS V14.01,2013-01-19 23:45:00,
2013-01-19 17:50:00,25.0,8.1,29.96,NW,309,33.0,33.0,48,0.00,,SKC,0.00,VWS V14.01,2013-01-19 23:50:00,
2013-01-19 17:55:00,25.0,8.5,29.96,NW,326,19.7,23.8,49,0.00,,SKC,0.00,VWS V14.01,2013-01-19 23:55:00,
2013-01-19 18:00:00,24.4,7.6,29.96,NNW,342,18.9,38.7,48,0.00,,SKC,0.00,VWS V14.01,2013-01-20 00:00:00,
2013-01-19 18:06:00,23.2,5.9,29.99,NW,326,15.7,27.0,47,0.00,,SKC,0.00,VWS V14.01,2013-01-20 00:06:00,
2013-01-19 18:11:00,22.6,5.5,29.99,WNW,289,30.2,30.2,47,0.00,,SKC,0.00,VWS V14.01,2013-01-20 00:11:00,
2013-01-19 18:17:00,21.9,4.3,29.99,NW,324,26.2,28.6,46,0.00,,SKC,0.00,VWS V14.01,2013-01-20 00:17:00,
2013-01-19 18:22:00,21.7,4.2,29.99,NNW,337,30.6,30.6,46,0.00,,SKC,0.00,VWS V14.01,2013-01-20 00:22:00,
2013-01-19 18:27:00,21.2,3.2,29.99,WNW,293,14.5,18.1,45,0.00,,SKC,0.00,VWS V14.01,2013-01-20 00:27:00,
2013-01-19 18:32:00,20.7,2.7,29.99,WNW,301,19.7,19.7,45,0.00,,SKC,0.00,VWS V14.01,2013-01-20 00:32:00,
2013-01-19 18:37:00,19.9,1.5,30.02,West,272,27.8,27.8,44,0.00,,SKC,0.00,VWS V14.01,2013-01-20 00:37:00,
2013-01-19 18:43:00,19.4,1.1,30.02,NW,313,27.8,31.4,44,0.00,,SKC,0.00,VWS V14.01,2013-01-20 00:43:00,
2013-01-19 18:48:00,18.7,0.4,30.02,WNW,300,19.7,19.7,44,0.00,,SKC,0.00,VWS V14.01,2013-01-20 00:48:00,
2013-01-19 18:54:00,18.1,-0.1,30.02,West,275,26.2,26.2,44,0.00,,SKC,0.00,VWS V14.01,2013-01-20 00:54:00,
2013-01-19 18:59:00,17.8,-0.4,30.02,West,280,14.5,43.5,44,0.00,,SKC,0.00,VWS V14.01,2013-01-20 00:59:00,
2013-01-19 19:05:00,17.6,-0.6,30.05,West,277,30.2,30.2,44,0.00,,SKC,0.00,VWS V14.01,2013-01-20 01:05:00,
2013-01-19 19:16:00,16.7,-1.4,30.05,WNW,283,20.5,20.5,44,0.00,,SKC,0.00,VWS V14.01,2013-01-20 01:16:00,
2013-01-19 19:21:00,16.7,-1.4,30.05,WNW,301,10.5,18.1,44,0.00,,SKC,0.00,VWS V14.01,2013-01-20 01:21:00,
2013-01-19 19:27:00,16.3,-1.3,30.05,NW,312,17.3,23.8,45,0.00,,SKC,0.00,VWS V14.01,2013-01-20 01:27:00,
2013-01-19 19:32:00,16.2,-1.4,30.05,NW,312,19.7,23.8,45,0.00,,SKC,0.00,VWS V14.01,2013-01-20 01:32:00,
2013-01-19 19:37:00,16.0,-1.1,30.05,North,353,18.9,27.8,46,0.00,,SKC,0.00,VWS V14.01,2013-01-20 01:37:00,
2013-01-19 19:43:00,14.7,-2.8,30.05,WNW,284,19.7,27.8,45,0.00,,SKC,0.00,VWS V14.01,2013-01-20 01:43:00,
2013-01-19 19:48:00,14.2,-3.2,30.05,NNW,335,14.9,14.9,45,0.00,,SKC,0.00,VWS V14.01,2013-01-20 01:48:00,
2013-01-19 19:53:00,14.0,-3.0,30.08,WNW,284,18.9,36.2,46,0.00,,SKC,0.00,VWS V14.01,2013-01-20 01:53:00,
2013-01-19 19:58:00,13.6,-3.3,30.08,North,353,11.3,37.8,46,0.00,,SKC,0.00,VWS V14.01,2013-01-20 01:58:00,
2013-01-19 20:03:00,13.3,-3.6,30.08,NNW,332,19.7,22.1,46,0.00,,SKC,0.00,VWS V14.01,2013-01-20 02:03:00,
2013-01-19 20:08:00,12.9,-4.0,30.08,NW,313,14.5,18.9,46,0.00,,SKC,0.00,VWS V14.01,2013-01-20 02:08:00,
2013-01-19 20:15:00,12.6,-4.3,30.08,North,357,18.1,18.1,46,0.00,,SKC,0.00,VWS V14.01,2013-01-20 02:15:00,
2013-01-19 20:20:00,12.4,-4.4,30.11,WNW,285,7.2,26.2,46,0.00,,SKC,0.00,VWS V14.01,2013-01-20 02:20:00,
2013-01-19 20:26:00,11.8,-4.9,30.11,North,0,19.7,37.8,46,0.00,,SKC,0.00,VWS V14.01,2013-01-20 02:26:00,
2013-01-19 20:32:00,11.7,-5.1,30.11,West,279,19.7,19.7,46,0.00,,SKC,0.00,VWS V14.01,2013-01-20 02:32:00,
2013-01-19 20:37:00,11.7,-5.1,30.11,WNW,297,18.9,31.4,46,0.00,,SKC,0.00,VWS V14.01,2013-01-20 02:37:00,
2013-01-19 20:43:00,11.3,-5.4,30.11,North,0,12.1,18.9,46,0.00,,SKC,0.00,VWS V14.01,2013-01-20 02:43:00,
2013-01-19 20:48:00,11.1,-5.6,30.11,WNW,300,26.2,26.2,46,0.00,,SKC,0.00,VWS V14.01,2013-01-20 02:48:00,
2013-01-19 20:53:00,11.1,-5.6,30.11,NW,309,23.0,27.0,46,0.00,,SKC,0.00,VWS V14.01,2013-01-20 02:53:00,
2013-01-19 20:58:00,10.9,-5.8,30.11,WSW,249,15.7,23.0,46,0.00,,SKC,0.00,VWS V14.01,2013-01-20 02:58:00,
2013-01-19 21:04:00,10.8,-5.9,30.11,NW,310,9.7,15.7,46,0.00,,SKC,0.00,VWS V14.01,2013-01-20 03:04:00,
2013-01-19 21:09:00,10.4,-6.3,30.11,NNW,329,11.3,18.9,46,0.00,,SKC,0.00,VWS V14.01,2013-01-20 03:09:00,
2013-01-19 21:14:00,10.2,-6.4,30.11,WNW,284,14.5,25.4,46,0.00,,SKC,0.00,VWS V14.01,2013-01-20 03:14:00,
2013-01-19 21:19:00,10.0,-6.6,30.14,NW,308,14.9,23.0,46,0.00,,SKC,0.00,VWS V14.01,2013-01-20 03:19:00,
2013-01-19 21:24:00,9.7,-6.9,30.14,NNW,334,19.7,32.2,46,0.00,,SKC,0.00,VWS V14.01,2013-01-20 03:24:00,
2013-01-19 21:29:00,9.3,-7.3,30.14,NNW,337,11.3,14.5,46,0.00,,SKC,0.00,VWS V14.01,2013-01-20 03:29:00,
2013-01-19 21:34:00,9.3,-7.3,30.14,West,279,30.2,30.2,46,0.00,,SKC,0.00,VWS V14.01,2013-01-20 03:34:00,
2013-01-19 21:39:00,9.1,-7.4,30.14,NNW,340,18.9,34.6,46,0.00,,SKC,0.00,VWS V14.01,2013-01-20 03:39:00,
2013-01-19 21:44:00,9.0,-7.6,30.14,North,1,22.1,27.8,46,0.00,,SKC,0.00,VWS V14.01,2013-01-20 03:44:00,
2013-01-19 21:49:00,8.8,-7.8,30.14,North,353,19.7,19.7,46,0.00,,SKC,0.00,VWS V14.01,2013-01-20 03:49:00,
2013-01-19 21:54:00,8.6,-7.9,30.14,NNW,328,18.1,18.1,46,0.00,,SKC,0.00,VWS V14.01,2013-01-20 03:54:00,
2013-01-19 21:59:00,8.4,-8.1,30.14,NW,313,14.5,14.5,46,0.00,,SKC,0.00,VWS V14.01,2013-01-20 03:59:00,
2013-01-19 22:04:00,8.2,-8.3,30.14,NW,318,18.1,18.9,46,0.00,,SKC,0.00,VWS V14.01,2013-01-20 04:04:00,
2013-01-19 22:09:00,8.2,-8.3,30.14,NNW,343,21.3,23.0,46,0.00,,SKC,0.00,VWS V14.01,2013-01-20 04:09:00,
2013-01-19 22:15:00,7.9,-8.6,30.14,NNW,334,6.4,15.7,46,0.00,,SKC,0.00,VWS V14.01,2013-01-20 04:15:00,
2013-01-19 22:20:00,7.7,-8.8,30.17,NNW,331,15.7,18.9,46,0.00,,SKC,0.00,VWS V14.01,2013-01-20 04:20:00,
2013-01-19 22:25:00,7.5,-8.9,30.17,North,357,19.7,20.5,46,0.00,,SKC,0.00,VWS V14.01,2013-01-20 04:25:00,
2013-01-19 22:30:00,7.2,-9.3,30.17,West,281,11.3,18.9,46,0.00,,SKC,0.00,VWS V14.01,2013-01-20 04:30:00,
2013-01-19 22:35:00,7.0,-9.4,30.17,NNW,331,9.7,18.1,46,0.00,,SKC,0.00,VWS V14.01,2013-01-20 04:35:00,
2013-01-19 22:40:00,6.6,-9.8,30.17,NW,315,18.9,18.9,46,0.00,,SKC,0.00,VWS V14.01,2013-01-20 04:40:00,
2013-01-19 22:46:00,6.4,-9.9,30.17,North,353,13.7,14.9,46,0.00,,SKC,0.00,VWS V14.01,2013-01-20 04:46:00,
2013-01-19 22:51:00,6.4,-9.9,30.17,NNW,341,18.1,33.8,46,0.00,,SKC,0.00,VWS V14.01,2013-01-20 04:51:00,
2013-01-19 22:57:00,6.3,-10.1,30.17,North,5,22.1,27.0,46,0.00,,SKC,0.00,VWS V14.01,2013-01-20 04:57:00,
2013-01-19 23:00:00,6.3,-10.1,30.17,North,353,7.2,33.0,46,0.00,,SKC,0.00,VWS V14.01,2013-01-20 05:00:00,
2013-01-19 23:01:00,6.3,-10.1,30.17,NNW,345,28.6,28.6,46,0.00,,SKC,0.00,VWS V14.01,2013-01-20 05:01:00,
2013-01-19 23:03:00,6.1,-10.2,30.17,NNW,328,6.4,18.1,46,0.00,,SKC,0.00,VWS V14.01,2013-01-20 05:03:00,
2013-01-19 23:08:00,6.1,-10.2,30.17,North,0,9.7,19.7,46,0.00,,SKC,0.00,VWS V14.01,2013-01-20 05:08:00,
2013-01-19 23:14:00,5.9,-10.4,30.17,NNW,330,16.5,18.9,46,0.00,,SKC,0.00,VWS V14.01,2013-01-20 05:14:00,
2013-01-19 23:20:00,5.9,-10.4,30.20,WNW,288,13.7,15.7,46,0.00,,SKC,0.00,VWS V14.01,2013-01-20 05:20:00,
2013-01-19 23:25:00,5.5,-10.8,30.20,NNW,327,10.5,19.7,46,0.00,,SKC,0.00,VWS V14.01,2013-01-20 05:25:00,
2013-01-19 23:30:00,5.4,-10.9,30.20,NW,322,5.6,15.7,46,0.00,,SKC,0.00,VWS V14.01,2013-01-20 05:30:00,
2013-01-19 23:35:00,5.4,-10.9,30.17,North,353,12.9,14.5,46,0.00,,SKC,0.00,VWS V14.01,2013-01-20 05:35:00,
2013-01-19 23:40:00,5.2,-11.1,30.17,NNE,19,13.7,13.7,46,0.00,,SKC,0.00,VWS V14.01,2013-01-20 05:40:00,
2013-01-19 23:45:00,5.0,-11.2,30.17,NNW,339,10.5,10.5,46,0.00,,SKC,0.00,VWS V14.01,2013-01-20 05:45:00,
2013-01-19 23:50:00,5.0,-11.2,30.17,NW,317,22.1,22.1,46,0.00,,SKC,0.00,VWS V14.01,2013-01-20 05:50:00,
2013-01-19 23:55:00,4.8,-11.4,30.17,NNW,332,18.1,23.8,46,0.00,,SKC,0.00,VWS V14.01,2013-01-20 05:55:00,